Roslyn, South Dakota
Current Conditions -  °F | °C
As of 12:53 PM on Saturday 25 Oct 2014 (Local Time) from KATY Reporting Station
Clear Clear  
Wind Chill: 17°   Ceiling: Unl
Heat Index: 17°   Visibility: 10mi
Dew Point: -1°   Wind: 13mph
Humidity: 30%   Direction: 340°NNW
Pressure: 30.14"   Gusts: 22mph
Location:  45.5°N, 97.49°W
Report Text: KATY 251753Z AUTO 34011G19KT 10SM CLR 17/M01 A3014 RMK AO2 SLP207 T01671011 10167 20050 58001 $
Loading
Personal Weather Stations






























Interactive Weather Map
Tropical Storm Tracking
New forecast layout! Learn more

10-Day Weather Forecast

Advertisements
Track Severe Weather on mobile